sensor_id;sensor_type;location;lat;lon;timestamp;pressure;altitude;pressure_sealevel;temperature;humidity
64687;BME280;51113;53.646;-113.674;2022-07-18T00:00:10;93223.31;;;24.72;49.99
64687;BME280;51113;53.646;-113.674;2022-07-18T00:02:39;93225.16;;;24.55;51.14
64687;BME280;51113;53.646;-113.674;2022-07-18T00:05:08;93209.03;;;24.34;52.61
64687;BME280;51113;53.646;-113.674;2022-07-18T00:07:37;93209.09;;;24.50;50.78
64687;BME280;51113;53.646;-113.674;2022-07-18T00:10:05;93209.66;;;24.56;51.89
64687;BME280;51113;53.646;-113.674;2022-07-18T00:12:34;93198.25;;;24.50;50.83
64687;BME280;51113;53.646;-113.674;2022-07-18T00:15:05;93199.81;;;24.51;51.62
64687;BME280;51113;53.646;-113.674;2022-07-18T00:17:33;93204.34;;;24.47;50.28
64687;BME280;51113;53.646;-113.674;2022-07-18T00:20:05;93203.91;;;24.45;49.45
64687;BME280;51113;53.646;-113.674;2022-07-18T00:22:34;93196.19;;;24.59;50.34
64687;BME280;51113;53.646;-113.674;2022-07-18T00:25:03;93200.00;;;24.71;49.58
64687;BME280;51113;53.646;-113.674;2022-07-18T00:27:32;93194.34;;;24.63;48.34
64687;BME280;51113;53.646;-113.674;2022-07-18T00:30:03;93198.81;;;24.84;48.87
64687;BME280;51113;53.646;-113.674;2022-07-18T00:32:32;93203.56;;;24.87;47.77
64687;BME280;51113;53.646;-113.674;2022-07-18T00:35:01;93187.75;;;24.77;46.45
64687;BME280;51113;53.646;-113.674;2022-07-18T00:37:29;93197.19;;;24.67;47.66
64687;BME280;51113;53.646;-113.674;2022-07-18T00:39:58;93195.50;;;24.62;47.67
64687;BME280;51113;53.646;-113.674;2022-07-18T00:42:27;93191.72;;;24.39;48.58
64687;BME280;51113;53.646;-113.674;2022-07-18T00:44:56;93182.66;;;24.23;49.46
64687;BME280;51113;53.646;-113.674;2022-07-18T00:47:25;93182.22;;;24.09;49.91
64687;BME280;51113;53.646;-113.674;2022-07-18T00:49:54;93180.63;;;24.20;49.20
64687;BME280;51113;53.646;-113.674;2022-07-18T00:52:23;93179.38;;;24.17;49.63
64687;BME280;51113;53.646;-113.674;2022-07-18T00:54:51;93174.66;;;24.26;50.00
64687;BME280;51113;53.646;-113.674;2022-07-18T00:57:20;93176.34;;;24.31;50.50
64687;BME280;51113;53.646;-113.674;2022-07-18T00:59:49;93172.72;;;24.27;51.21
64687;BME280;51113;53.646;-113.674;2022-07-18T01:02:36;93164.81;;;24.10;49.06
64687;BME280;51113;53.646;-113.674;2022-07-18T01:05:06;93158.94;;;23.95;50.57
64687;BME280;51113;53.646;-113.674;2022-07-18T01:07:35;93161.78;;;23.62;51.05
64687;BME280;51113;53.646;-113.674;2022-07-18T01:10:05;93164.38;;;23.59;51.68
64687;BME280;51113;53.646;-113.674;2022-07-18T01:12:34;93166.31;;;23.70;53.51
64687;BME280;51113;53.646;-113.674;2022-07-18T01:15:03;93163.03;;;23.65;52.63
64687;BME280;51113;53.646;-113.674;2022-07-18T01:17:32;93151.72;;;23.63;54.75
64687;BME280;51113;53.646;-113.674;2022-07-18T01:20:02;93165.28;;;23.63;54.13
64687;BME280;51113;53.646;-113.674;2022-07-18T01:22:31;93162.25;;;23.64;54.51
64687;BME280;51113;53.646;-113.674;2022-07-18T01:25:01;93169.22;;;23.53;53.15
64687;BME280;51113;53.646;-113.674;2022-07-18T01:27:29;93171.47;;;23.51;52.69
64687;BME280;51113;53.646;-113.674;2022-07-18T01:29:58;93162.81;;;23.70;53.09
64687;BME280;51113;53.646;-113.674;2022-07-18T01:32:26;93171.63;;;23.79;53.17
64687;BME280;51113;53.646;-113.674;2022-07-18T01:34:55;93164.59;;;23.90;53.52
64687;BME280;51113;53.646;-113.674;2022-07-18T01:37:24;93172.06;;;23.81;53.48
64687;BME280;51113;53.646;-113.674;2022-07-18T01:39:52;93167.22;;;23.75;53.87
64687;BME280;51113;53.646;-113.674;2022-07-18T01:42:21;93173.88;;;23.89;54.58
64687;BME280;51113;53.646;-113.674;2022-07-18T01:44:50;93165.41;;;23.79;54.49
64687;BME280;51113;53.646;-113.674;2022-07-18T01:47:18;93161.69;;;23.71;53.80
64687;BME280;51113;53.646;-113.674;2022-07-18T01:49:47;93160.78;;;23.67;54.04
64687;BME280;51113;53.646;-113.674;2022-07-18T01:52:16;93157.16;;;23.63;53.51
64687;BME280;51113;53.646;-113.674;2022-07-18T01:54:45;93162.69;;;23.54;54.14
64687;BME280;51113;53.646;-113.674;2022-07-18T01:57:14;93156.94;;;23.56;54.66
64687;BME280;51113;53.646;-113.674;2022-07-18T01:59:42;93165.25;;;23.51;54.53
64687;BME280;51113;53.646;-113.674;2022-07-18T02:02:11;93160.28;;;23.40;53.82
64687;BME280;51113;53.646;-113.674;2022-07-18T02:04:40;93164.06;;;23.39;53.70
64687;BME280;51113;53.646;-113.674;2022-07-18T02:07:37;93151.19;;;23.36;53.05
64687;BME280;51113;53.646;-113.674;2022-07-18T02:10:12;93151.41;;;23.31;54.16
64687;BME280;51113;53.646;-113.674;2022-07-18T02:12:41;93150.16;;;23.17;54.53
64687;BME280;51113;53.646;-113.674;2022-07-18T02:15:12;93151.63;;;23.26;53.48
64687;BME280;51113;53.646;-113.674;2022-07-18T02:17:43;93148.22;;;23.17;53.29
64687;BME280;51113;53.646;-113.674;2022-07-18T02:20:14;93153.09;;;23.24;53.24
64687;BME280;51113;53.646;-113.674;2022-07-18T02:22:44;93143.50;;;23.14;55.09
64687;BME280;51113;53.646;-113.674;2022-07-18T02:25:13;93144.69;;;22.92;56.69
64687;BME280;51113;53.646;-113.674;2022-07-18T02:27:42;93151.34;;;22.95;55.54
64687;BME280;51113;53.646;-113.674;2022-07-18T02:30:11;93141.75;;;22.97;55.53
64687;BME280;51113;53.646;-113.674;2022-07-18T02:32:40;93156.44;;;22.96;55.75
64687;BME280;51113;53.646;-113.674;2022-07-18T02:35:09;93144.88;;;22.87;55.94
64687;BME280;51113;53.646;-113.674;2022-07-18T02:37:38;93148.13;;;22.81;56.86
64687;BME280;51113;53.646;-113.674;2022-07-18T02:40:10;93146.16;;;22.69;57.58
64687;BME280;51113;53.646;-113.674;2022-07-18T02:42:40;93146.31;;;22.52;57.95
64687;BME280;51113;53.646;-113.674;2022-07-18T02:45:09;93136.75;;;22.33;59.10
64687;BME280;51113;53.646;-113.674;2022-07-18T02:47:38;93141.78;;;22.23;59.11
64687;BME280;51113;53.646;-113.674;2022-07-18T02:50:08;93143.88;;;22.17;59.33
64687;BME280;51113;53.646;-113.674;2022-07-18T02:52:38;93136.03;;;22.03;59.50
64687;BME280;51113;53.646;-113.674;2022-07-18T02:55:07;93135.91;;;21.91;59.26
64687;BME280;51113;53.646;-113.674;2022-07-18T02:57:37;93132.06;;;21.71;59.25
64687;BME280;51113;53.646;-113.674;2022-07-18T03:00:11;93135.41;;;21.68;58.67
64687;BME280;51113;53.646;-113.674;2022-07-18T03:02:40;93146.75;;;21.62;59.36
64687;BME280;51113;53.646;-113.674;2022-07-18T03:05:10;93140.72;;;21.56;59.64
64687;BME280;51113;53.646;-113.674;2022-07-18T03:07:38;93142.53;;;21.43;60.05
64687;BME280;51113;53.646;-113.674;2022-07-18T03:10:08;93140.38;;;21.28;61.25
64687;BME280;51113;53.646;-113.674;2022-07-18T03:12:37;93139.91;;;21.17;62.07
64687;BME280;51113;53.646;-113.674;2022-07-18T03:15:05;93137.94;;;20.97;62.43
64687;BME280;51113;53.646;-113.674;2022-07-18T03:17:34;93136.19;;;20.75;63.40
64687;BME280;51113;53.646;-113.674;2022-07-18T03:20:03;93133.53;;;20.67;63.68
64687;BME280;51113;53.646;-113.674;2022-07-18T03:22:32;93146.53;;;20.65;63.29
64687;BME280;51113;53.646;-113.674;2022-07-18T03:25:01;93142.75;;;20.48;64.62
64687;BME280;51113;53.646;-113.674;2022-07-18T03:27:30;93143.22;;;20.33;64.42
64687;BME280;51113;53.646;-113.674;2022-07-18T03:29:59;93152.25;;;20.29;64.64
64687;BME280;51113;53.646;-113.674;2022-07-18T03:32:27;93148.28;;;20.17;65.53
64687;BME280;51113;53.646;-113.674;2022-07-18T03:34:56;93144.63;;;20.13;66.80
64687;BME280;51113;53.646;-113.674;2022-07-18T03:37:25;93147.66;;;20.03;65.96
64687;BME280;51113;53.646;-113.674;2022-07-18T03:39:53;93151.59;;;19.97;65.48
64687;BME280;51113;53.646;-113.674;2022-07-18T03:42:22;93147.94;;;19.93;65.95
64687;BME280;51113;53.646;-113.674;2022-07-18T03:44:51;93148.72;;;19.85;65.71
64687;BME280;51113;53.646;-113.674;2022-07-18T03:47:20;93153.34;;;19.84;65.08
64687;BME280;51113;53.646;-113.674;2022-07-18T03:49:48;93145.09;;;19.81;64.72
64687;BME280;51113;53.646;-113.674;2022-07-18T03:52:17;93153.66;;;19.83;64.10
64687;BME280;51113;53.646;-113.674;2022-07-18T03:54:46;93159.66;;;19.80;63.76
64687;BME280;51113;53.646;-113.674;2022-07-18T03:57:15;93160.78;;;19.79;63.98
64687;BME280;51113;53.646;-113.674;2022-07-18T03:59:43;93150.47;;;19.72;64.11
64687;BME280;51113;53.646;-113.674;2022-07-18T04:02:12;93151.41;;;19.76;63.40
64687;BME280;51113;53.646;-113.674;2022-07-18T04:04:40;93153.78;;;19.78;63.13
64687;BME280;51113;53.646;-113.674;2022-07-18T04:07:10;93153.31;;;19.76;64.57
64687;BME280;51113;53.646;-113.674;2022-07-18T04:09:39;93151.25;;;19.73;64.65
64687;BME280;51113;53.646;-113.674;2022-07-18T04:12:08;93154.88;;;19.68;65.99
64687;BME280;51113;53.646;-113.674;2022-07-18T04:14:36;93155.50;;;19.56;65.80
64687;BME280;51113;53.646;-113.674;2022-07-18T04:17:05;93150.03;;;19.39;66.60
64687;BME280;51113;53.646;-113.674;2022-07-18T04:19:33;93164.25;;;19.31;67.27
64687;BME280;51113;53.646;-113.674;2022-07-18T04:22:03;93157.94;;;19.36;67.05
64687;BME280;51113;53.646;-113.674;2022-07-18T04:24:31;93148.91;;;19.40;65.74
64687;BME280;51113;53.646;-113.674;2022-07-18T04:27:00;93159.06;;;19.43;64.64
64687;BME280;51113;53.646;-113.674;2022-07-18T04:29:29;93158.94;;;19.48;64.58
64687;BME280;51113;53.646;-113.674;2022-07-18T04:31:59;93141.00;;;19.44;64.62
64687;BME280;51113;53.646;-113.674;2022-07-18T04:34:28;93164.75;;;19.42;64.85
64687;BME280;51113;53.646;-113.674;2022-07-18T04:36:57;93154.00;;;19.42;64.52
64687;BME280;51113;53.646;-113.674;2022-07-18T04:39:25;93150.34;;;19.38;64.58
64687;BME280;51113;53.646;-113.674;2022-07-18T04:41:54;93162.66;;;19.30;64.90
64687;BME280;51113;53.646;-113.674;2022-07-18T04:44:24;93159.31;;;19.24;64.01
64687;BME280;51113;53.646;-113.674;2022-07-18T04:46:52;93155.97;;;19.19;64.21
64687;BME280;51113;53.646;-113.674;2022-07-18T04:49:21;93156.59;;;19.16;64.12
64687;BME280;51113;53.646;-113.674;2022-07-18T04:51:50;93152.13;;;19.11;64.03
64687;BME280;51113;53.646;-113.674;2022-07-18T04:54:19;93155.13;;;19.10;64.02
64687;BME280;51113;53.646;-113.674;2022-07-18T04:56:47;93159.25;;;19.07;64.40
64687;BME280;51113;53.646;-113.674;2022-07-18T04:59:16;93159.56;;;19.06;64.66
64687;BME280;51113;53.646;-113.674;2022-07-18T05:01:44;93160.34;;;19.06;64.63
64687;BME280;51113;53.646;-113.674;2022-07-18T05:04:12;93161.75;;;19.04;64.81
64687;BME280;51113;53.646;-113.674;2022-07-18T05:06:41;93160.16;;;19.03;65.06
64687;BME280;51113;53.646;-113.674;2022-07-18T05:09:10;93161.09;;;18.98;65.24
64687;BME280;51113;53.646;-113.674;2022-07-18T05:11:39;93154.84;;;18.80;66.69
64687;BME280;51113;53.646;-113.674;2022-07-18T05:14:07;93156.84;;;18.75;65.85
64687;BME280;51113;53.646;-113.674;2022-07-18T05:16:36;93146.53;;;18.68;66.81
64687;BME280;51113;53.646;-113.674;2022-07-18T05:19:05;93142.16;;;18.58;67.38
64687;BME280;51113;53.646;-113.674;2022-07-18T05:21:34;93161.31;;;18.57;67.48
64687;BME280;51113;53.646;-113.674;2022-07-18T05:24:03;93153.91;;;18.40;68.47
64687;BME280;51113;53.646;-113.674;2022-07-18T05:26:31;93152.91;;;18.14;68.62
64687;BME280;51113;53.646;-113.674;2022-07-18T05:29:02;93151.41;;;18.21;68.45
64687;BME280;51113;53.646;-113.674;2022-07-18T05:31:31;93154.28;;;18.25;68.12
64687;BME280;51113;53.646;-113.674;2022-07-18T05:34:00;93139.63;;;18.31;68.45
64687;BME280;51113;53.646;-113.674;2022-07-18T05:36:29;93139.69;;;18.40;68.19
64687;BME280;51113;53.646;-113.674;2022-07-18T05:38:58;93142.38;;;18.40;68.39
64687;BME280;51113;53.646;-113.674;2022-07-18T05:41:26;93146.03;;;18.44;68.44
64687;BME280;51113;53.646;-113.674;2022-07-18T05:43:55;93127.69;;;18.46;68.33
64687;BME280;51113;53.646;-113.674;2022-07-18T05:46:24;93139.72;;;18.48;68.23
64687;BME280;51113;53.646;-113.674;2022-07-18T05:48:52;93132.59;;;18.44;68.45
64687;BME280;51113;53.646;-113.674;2022-07-18T05:51:22;93123.72;;;18.43;68.70
64687;BME280;51113;53.646;-113.674;2022-07-18T05:53:51;93122.75;;;18.39;68.80
64687;BME280;51113;53.646;-113.674;2022-07-18T05:56:19;93121.47;;;18.37;68.86
64687;BME280;51113;53.646;-113.674;2022-07-18T05:58:48;93117.19;;;18.36;68.92
64687;BME280;51113;53.646;-113.674;2022-07-18T06:01:16;93118.28;;;18.35;69.12
64687;BME280;51113;53.646;-113.674;2022-07-18T06:03:48;93111.94;;;18.30;69.33
64687;BME280;51113;53.646;-113.674;2022-07-18T06:06:17;93118.72;;;18.28;69.40
64687;BME280;51113;53.646;-113.674;2022-07-18T06:08:49;93114.75;;;18.25;69.75
64687;BME280;51113;53.646;-113.674;2022-07-18T06:11:18;93109.69;;;18.24;69.94
64687;BME280;51113;53.646;-113.674;2022-07-18T06:13:46;93111.88;;;18.22;70.26
64687;BME280;51113;53.646;-113.674;2022-07-18T06:16:15;93111.88;;;18.22;70.64
64687;BME280;51113;53.646;-113.674;2022-07-18T06:18:44;93117.84;;;18.19;70.76
64687;BME280;51113;53.646;-113.674;2022-07-18T06:21:13;93110.69;;;18.14;71.30
64687;BME280;51113;53.646;-113.674;2022-07-18T06:23:41;93110.63;;;18.06;71.67
64687;BME280;51113;53.646;-113.674;2022-07-18T06:26:10;93111.03;;;17.99;72.02
64687;BME280;51113;53.646;-113.674;2022-07-18T06:28:39;93106.38;;;17.91;72.81
64687;BME280;51113;53.646;-113.674;2022-07-18T06:31:13;93102.22;;;17.85;73.61
64687;BME280;51113;53.646;-113.674;2022-07-18T06:33:44;93105.94;;;17.75;73.77
64687;BME280;51113;53.646;-113.674;2022-07-18T06:36:13;93100.75;;;17.65;74.89
64687;BME280;51113;53.646;-113.674;2022-07-18T06:38:41;93112.81;;;17.67;74.80
64687;BME280;51113;53.646;-113.674;2022-07-18T06:41:10;93099.41;;;17.67;74.95
64687;BME280;51113;53.646;-113.674;2022-07-18T06:43:40;93102.38;;;17.66;75.24
64687;BME280;51113;53.646;-113.674;2022-07-18T06:46:10;93105.25;;;17.70;74.68
64687;BME280;51113;53.646;-113.674;2022-07-18T06:48:38;93106.34;;;17.68;74.75
64687;BME280;51113;53.646;-113.674;2022-07-18T06:51:07;93106.66;;;17.67;74.81
64687;BME280;51113;53.646;-113.674;2022-07-18T06:53:36;93098.09;;;17.65;74.83
64687;BME280;51113;53.646;-113.674;2022-07-18T06:56:05;93105.16;;;17.61;75.18
64687;BME280;51113;53.646;-113.674;2022-07-18T06:58:34;93108.25;;;17.54;75.39
64687;BME280;51113;53.646;-113.674;2022-07-18T07:01:03;93103.41;;;17.43;76.10
64687;BME280;51113;53.646;-113.674;2022-07-18T07:03:32;93103.09;;;17.44;76.15
64687;BME280;51113;53.646;-113.674;2022-07-18T07:06:01;93101.22;;;17.45;76.32
64687;BME280;51113;53.646;-113.674;2022-07-18T07:08:30;93096.84;;;17.35;76.72
64687;BME280;51113;53.646;-113.674;2022-07-18T07:10:58;93098.25;;;17.32;77.28
64687;BME280;51113;53.646;-113.674;2022-07-18T07:13:27;93088.03;;;17.21;77.80
64687;BME280;51113;53.646;-113.674;2022-07-18T07:15:56;93089.41;;;17.18;78.38
64687;BME280;51113;53.646;-113.674;2022-07-18T07:18:24;93087.53;;;17.19;78.57
64687;BME280;51113;53.646;-113.674;2022-07-18T07:20:53;93088.72;;;17.13;78.98
64687;BME280;51113;53.646;-113.674;2022-07-18T07:23:22;93086.94;;;17.08;79.21
64687;BME280;51113;53.646;-113.674;2022-07-18T07:25:51;93097.66;;;17.08;79.44
64687;BME280;51113;53.646;-113.674;2022-07-18T07:28:19;93091.22;;;17.09;80.02
64687;BME280;51113;53.646;-113.674;2022-07-18T07:30:48;93091.59;;;17.16;80.12
64687;BME280;51113;53.646;-113.674;2022-07-18T07:33:17;93087.72;;;17.09;80.46
64687;BME280;51113;53.646;-113.674;2022-07-18T07:35:45;93089.91;;;17.07;81.08
64687;BME280;51113;53.646;-113.674;2022-07-18T07:38:14;93093.59;;;17.11;80.98
64687;BME280;51113;53.646;-113.674;2022-07-18T07:40:47;93090.31;;;17.14;81.16
64687;BME280;51113;53.646;-113.674;2022-07-18T07:43:16;93093.28;;;17.12;81.30
64687;BME280;51113;53.646;-113.674;2022-07-18T07:45:48;93098.47;;;17.09;81.33
64687;BME280;51113;53.646;-113.674;2022-07-18T07:48:17;93092.09;;;17.04;82.08
64687;BME280;51113;53.646;-113.674;2022-07-18T07:50:46;93093.78;;;17.00;82.05
64687;BME280;51113;53.646;-113.674;2022-07-18T07:53:14;93092.81;;;16.96;82.65
64687;BME280;51113;53.646;-113.674;2022-07-18T07:55:43;93093.28;;;16.98;82.87
64687;BME280;51113;53.646;-113.674;2022-07-18T07:58:12;93089.03;;;16.97;82.79
64687;BME280;51113;53.646;-113.674;2022-07-18T08:00:41;93089.03;;;16.84;83.49
64687;BME280;51113;53.646;-113.674;2022-07-18T08:03:09;93093.00;;;16.73;83.43
64687;BME280;51113;53.646;-113.674;2022-07-18T08:05:47;93090.00;;;16.74;83.73
64687;BME280;51113;53.646;-113.674;2022-07-18T08:08:16;93087.81;;;16.76;83.76
64687;BME280;51113;53.646;-113.674;2022-07-18T08:10:46;93086.94;;;16.81;83.92
64687;BME280;51113;53.646;-113.674;2022-07-18T08:13:16;93081.88;;;16.79;83.87
64687;BME280;51113;53.646;-113.674;2022-07-18T08:15:44;93085.16;;;16.76;84.13
64687;BME280;51113;53.646;-113.674;2022-07-18T08:18:13;93072.53;;;16.77;84.07
64687;BME280;51113;53.646;-113.674;2022-07-18T08:20:42;93073.81;;;16.79;84.25
64687;BME280;51113;53.646;-113.674;2022-07-18T08:23:11;93081.28;;;16.82;84.34
64687;BME280;51113;53.646;-113.674;2022-07-18T08:25:41;93077.28;;;16.80;84.62
64687;BME280;51113;53.646;-113.674;2022-07-18T08:28:11;93070.34;;;16.79;84.59
64687;BME280;51113;53.646;-113.674;2022-07-18T08:30:41;93070.63;;;16.77;84.59
64687;BME280;51113;53.646;-113.674;2022-07-18T08:33:10;93075.72;;;16.79;84.58
64687;BME280;51113;53.646;-113.674;2022-07-18T08:35:38;93070.06;;;16.80;84.65
64687;BME280;51113;53.646;-113.674;2022-07-18T08:38:07;93069.44;;;16.83;84.51
64687;BME280;51113;53.646;-113.674;2022-07-18T08:40:37;93069.66;;;16.87;84.42
64687;BME280;51113;53.646;-113.674;2022-07-18T08:43:06;93065.88;;;16.88;84.50
64687;BME280;51113;53.646;-113.674;2022-07-18T08:45:54;93061.09;;;16.85;84.56
64687;BME280;51113;53.646;-113.674;2022-07-18T08:48:24;93060.13;;;16.81;85.12
64687;BME280;51113;53.646;-113.674;2022-07-18T08:50:53;93060.22;;;16.76;85.01
64687;BME280;51113;53.646;-113.674;2022-07-18T08:53:22;93055.25;;;16.69;85.41
64687;BME280;51113;53.646;-113.674;2022-07-18T08:55:51;93053.34;;;16.69;85.41
64687;BME280;51113;53.646;-113.674;2022-07-18T08:58:20;93051.56;;;16.65;85.61
64687;BME280;51113;53.646;-113.674;2022-07-18T09:01:09;93044.59;;;16.64;85.74
64687;BME280;51113;53.646;-113.674;2022-07-18T09:03:38;93052.72;;;16.59;85.91
64687;BME280;51113;53.646;-113.674;2022-07-18T09:06:09;93049.03;;;16.55;86.09
64687;BME280;51113;53.646;-113.674;2022-07-18T09:08:39;93047.16;;;16.55;85.95
64687;BME280;51113;53.646;-113.674;2022-07-18T09:11:10;93051.22;;;16.53;86.04
64687;BME280;51113;53.646;-113.674;2022-07-18T09:13:59;93039.81;;;16.47;86.48
64687;BME280;51113;53.646;-113.674;2022-07-18T09:16:28;93039.50;;;16.49;86.35
64687;BME280;51113;53.646;-113.674;2022-07-18T09:19:05;93032.56;;;16.48;86.21
64687;BME280;51113;53.646;-113.674;2022-07-18T09:21:36;93034.44;;;16.47;86.34
64687;BME280;51113;53.646;-113.674;2022-07-18T09:24:06;93032.16;;;16.40;86.23
64687;BME280;51113;53.646;-113.674;2022-07-18T09:26:40;93038.41;;;16.36;87.00
64687;BME280;51113;53.646;-113.674;2022-07-18T09:29:15;93039.47;;;16.21;87.21
64687;BME280;51113;53.646;-113.674;2022-07-18T09:31:55;93041.44;;;16.16;88.05
64687;BME280;51113;53.646;-113.674;2022-07-18T09:34:38;93028.72;;;16.07;88.11
64687;BME280;51113;53.646;-113.674;2022-07-18T09:37:11;93029.91;;;16.01;88.70
64687;BME280;51113;53.646;-113.674;2022-07-18T09:39:40;93028.41;;;15.95;88.74
64687;BME280;51113;53.646;-113.674;2022-07-18T09:42:14;93031.78;;;16.01;88.81
64687;BME280;51113;53.646;-113.674;2022-07-18T09:44:47;93030.91;;;16.05;88.52
64687;BME280;51113;53.646;-113.674;2022-07-18T09:47:24;93019.91;;;16.07;88.38
64687;BME280;51113;53.646;-113.674;2022-07-18T09:49:53;93016.41;;;16.06;88.56
64687;BME280;51113;53.646;-113.674;2022-07-18T09:52:23;93020.19;;;16.05;88.63
64687;BME280;51113;53.646;-113.674;2022-07-18T09:55:04;93022.75;;;15.97;88.71
64687;BME280;51113;53.646;-113.674;2022-07-18T09:57:34;93023.13;;;15.90;88.94
64687;BME280;51113;53.646;-113.674;2022-07-18T10:00:04;93018.28;;;15.92;89.02
64687;BME280;51113;53.646;-113.674;2022-07-18T10:02:33;93021.44;;;15.94;89.22
64687;BME280;51113;53.646;-113.674;2022-07-18T10:05:02;93021.66;;;15.98;89.12
64687;BME280;51113;53.646;-113.674;2022-07-18T10:07:36;93017.34;;;15.83;89.29
64687;BME280;51113;53.646;-113.674;2022-07-18T10:10:06;93017.50;;;15.73;89.98
64687;BME280;51113;53.646;-113.674;2022-07-18T10:12:35;93018.31;;;15.73;90.05
64687;BME280;51113;53.646;-113.674;2022-07-18T10:15:04;93022.38;;;15.71;90.05
64687;BME280;51113;53.646;-113.674;2022-07-18T10:17:33;93026.34;;;15.73;90.21
64687;BME280;51113;53.646;-113.674;2022-07-18T10:20:07;93033.59;;;15.73;90.52
64687;BME280;51113;53.646;-113.674;2022-07-18T10:22:40;93031.50;;;15.70;90.80
64687;BME280;51113;53.646;-113.674;2022-07-18T10:25:13;93034.38;;;15.73;90.55
64687;BME280;51113;53.646;-113.674;2022-07-18T10:27:49;93032.69;;;15.78;90.51
64687;BME280;51113;53.646;-113.674;2022-07-18T10:30:29;93041.09;;;15.71;90.72
64687;BME280;51113;53.646;-113.674;2022-07-18T10:32:59;93036.56;;;15.71;90.78
64687;BME280;51113;53.646;-113.674;2022-07-18T10:36:02;93038.72;;;15.69;90.74
64687;BME280;51113;53.646;-113.674;2022-07-18T10:38:39;93041.91;;;15.71;90.87
64687;BME280;51113;53.646;-113.674;2022-07-18T10:41:28;93041.91;;;15.71;90.72
64687;BME280;51113;53.646;-113.674;2022-07-18T10:43:57;93047.25;;;15.71;90.86
64687;BME280;51113;53.646;-113.674;2022-07-18T10:47:19;93039.31;;;15.66;90.95
64687;BME280;51113;53.646;-113.674;2022-07-18T11:00:24;93041.81;;;15.58;91.33
64687;BME280;51113;53.646;-113.674;2022-07-18T11:03:12;93037.53;;;15.57;91.28
64687;BME280;51113;53.646;-113.674;2022-07-18T11:05:44;93043.16;;;15.55;91.59
64687;BME280;51113;53.646;-113.674;2022-07-18T11:13:28;93040.47;;;15.60;91.68
64687;BME280;51113;53.646;-113.674;2022-07-18T11:16:15;93045.81;;;15.60;91.42
64687;BME280;51113;53.646;-113.674;2022-07-18T11:21:26;93040.19;;;15.57;91.51
64687;BME280;51113;53.646;-113.674;2022-07-18T11:24:10;93032.44;;;15.60;91.45
64687;BME280;51113;53.646;-113.674;2022-07-18T11:26:46;93035.34;;;15.64;91.12
64687;BME280;51113;53.646;-113.674;2022-07-18T11:29:17;93022.00;;;15.59;91.06
64687;BME280;51113;53.646;-113.674;2022-07-18T11:31:58;93025.75;;;15.58;91.29
64687;BME280;51113;53.646;-113.674;2022-07-18T11:34:27;93027.63;;;15.57;90.91
64687;BME280;51113;53.646;-113.674;2022-07-18T11:37:08;93022.00;;;15.59;90.95
64687;BME280;51113;53.646;-113.674;2022-07-18T11:39:37;93023.88;;;15.58;91.10
64687;BME280;51113;53.646;-113.674;2022-07-18T11:42:06;93014.50;;;15.56;91.06
64687;BME280;51113;53.646;-113.674;2022-07-18T11:44:38;93015.31;;;15.56;90.96
64687;BME280;51113;53.646;-113.674;2022-07-18T11:47:11;93013.16;;;15.58;90.79
64687;BME280;51113;53.646;-113.674;2022-07-18T11:49:40;93015.28;;;15.61;90.65
64687;BME280;51113;53.646;-113.674;2022-07-18T11:52:22;93014.75;;;15.59;90.72
64687;BME280;51113;53.646;-113.674;2022-07-18T11:54:57;93013.69;;;15.60;90.76
64687;BME280;51113;53.646;-113.674;2022-07-18T11:57:30;93019.28;;;15.64;90.49
64687;BME280;51113;53.646;-113.674;2022-07-18T12:00:00;93013.41;;;15.62;90.42
64687;BME280;51113;53.646;-113.674;2022-07-18T12:05:55;93014.25;;;15.57;91.16
64687;BME280;51113;53.646;-113.674;2022-07-18T12:08:35;93010.50;;;15.58;90.89
64687;BME280;51113;53.646;-113.674;2022-07-18T12:11:27;93016.94;;;15.57;91.06
64687;BME280;51113;53.646;-113.674;2022-07-18T12:13:59;93012.63;;;15.61;90.91
64687;BME280;51113;53.646;-113.674;2022-07-18T12:16:42;93015.84;;;15.58;90.70
64687;BME280;51113;53.646;-113.674;2022-07-18T12:19:14;93012.53;;;15.66;90.51
64687;BME280;51113;53.646;-113.674;2022-07-18T12:21:53;93014.72;;;15.64;90.88
64687;BME280;51113;53.646;-113.674;2022-07-18T12:24:30;93001.53;;;15.68;90.73
64687;BME280;51113;53.646;-113.674;2022-07-18T12:32:51;92996.59;;;15.75;91.30
64687;BME280;51113;53.646;-113.674;2022-07-18T12:35:28;93006.50;;;15.74;91.34
64687;BME280;51113;53.646;-113.674;2022-07-18T12:40:59;93000.50;;;15.83;91.44
64687;BME280;51113;53.646;-113.674;2022-07-18T12:43:35;92991.88;;;15.86;90.98
64687;BME280;51113;53.646;-113.674;2022-07-18T12:46:09;92995.75;;;15.93;90.61
64687;BME280;51113;53.646;-113.674;2022-07-18T12:48:37;93000.22;;;15.98;90.29
64687;BME280;51113;53.646;-113.674;2022-07-18T12:51:08;92999.34;;;16.02;89.81
64687;BME280;51113;53.646;-113.674;2022-07-18T12:53:39;92994.19;;;16.06;89.20
64687;BME280;51113;53.646;-113.674;2022-07-18T12:56:09;92998.06;;;16.14;88.93
64687;BME280;51113;53.646;-113.674;2022-07-18T12:58:38;92985.78;;;16.26;88.74
64687;BME280;51113;53.646;-113.674;2022-07-18T13:01:06;92984.31;;;16.34;88.00
64687;BME280;51113;53.646;-113.674;2022-07-18T13:03:35;92985.59;;;16.36;87.92
64687;BME280;51113;53.646;-113.674;2022-07-18T13:06:04;92984.69;;;16.41;87.52
64687;BME280;51113;53.646;-113.674;2022-07-18T13:08:33;92987.59;;;16.45;87.54
64687;BME280;51113;53.646;-113.674;2022-07-18T13:11:02;92983.31;;;16.57;87.14
64687;BME280;51113;53.646;-113.674;2022-07-18T13:13:31;92982.91;;;16.64;86.63
64687;BME280;51113;53.646;-113.674;2022-07-18T13:15:59;92980.84;;;16.75;86.41
64687;BME280;51113;53.646;-113.674;2022-07-18T13:18:28;92986.31;;;16.83;86.00